sensor_id;sensor_type;location;lat;lon;timestamp;pressure;altitude;pressure_sealevel;temperature;humidity
61908;BME280;47864;52.526;19.672;2023-09-19T00:01:29;154353.31;;;21.36;100.00
61908;BME280;47864;52.526;19.672;2023-09-19T00:03:30;154362.25;;;21.40;100.00
61908;BME280;47864;52.526;19.672;2023-09-19T00:05:36;154311.28;;;21.19;100.00
61908;BME280;47864;52.526;19.672;2023-09-19T00:07:38;154306.16;;;21.17;100.00
61908;BME280;47864;52.526;19.672;2023-09-19T00:09:39;154325.25;;;21.25;100.00
61908;BME280;47864;52.526;19.672;2023-09-19T00:11:41;154329.09;;;21.26;100.00
61908;BME280;47864;52.526;19.672;2023-09-19T00:13:43;154295.97;;;21.13;100.00
61908;BME280;47864;52.526;19.672;2023-09-19T00:15:46;154295.97;;;21.13;100.00
61908;BME280;47864;52.526;19.672;2023-09-19T00:17:48;154289.56;;;21.11;100.00
61908;BME280;47864;52.526;19.672;2023-09-19T00:19:50;154325.25;;;21.25;100.00
61908;BME280;47864;52.526;19.672;2023-09-19T00:21:51;154307.44;;;21.18;100.00
61908;BME280;47864;52.526;19.672;2023-09-19T00:23:53;154310.00;;;21.19;100.00
61908;BME280;47864;52.526;19.672;2023-09-19T00:25:58;154297.25;;;21.14;100.00
61908;BME280;47864;52.526;19.672;2023-09-19T00:28:00;154311.28;;;21.19;100.00
61908;BME280;47864;52.526;19.672;2023-09-19T00:30:01;154317.66;;;21.22;100.00
61908;BME280;47864;52.526;19.672;2023-09-19T00:32:03;154294.69;;;21.13;100.00
61908;BME280;47864;52.526;19.672;2023-09-19T00:34:05;154313.81;;;21.20;100.00
61908;BME280;47864;52.526;19.672;2023-09-19T00:36:06;154292.13;;;21.12;100.00
61908;BME280;47864;52.526;19.672;2023-09-19T00:38:08;154311.28;;;21.19;100.00
61908;BME280;47864;52.526;19.672;2023-09-19T00:40:10;154310.00;;;21.19;100.00
61908;BME280;47864;52.526;19.672;2023-09-19T00:42:19;154304.91;;;21.17;100.00
61908;BME280;47864;52.526;19.672;2023-09-19T00:44:20;154255.22;;;20.97;100.00
61908;BME280;47864;52.526;19.672;2023-09-19T00:46:22;154257.78;;;20.98;100.00
61908;BME280;47864;52.526;19.672;2023-09-19T00:48:25;154236.13;;;20.89;100.00
61908;BME280;47864;52.526;19.672;2023-09-19T00:50:27;154245.00;;;20.93;100.00
61908;BME280;47864;52.526;19.672;2023-09-19T00:52:29;154224.63;;;20.85;100.00
61908;BME280;47864;52.526;19.672;2023-09-19T00:54:30;154177.56;;;20.66;100.00
61908;BME280;47864;52.526;19.672;2023-09-19T00:56:32;154189.00;;;20.71;100.00
61908;BME280;47864;52.526;19.672;2023-09-19T00:58:34;154145.72;;;20.54;100.00
61908;BME280;47864;52.526;19.672;2023-09-19T01:00:36;154191.56;;;20.72;100.00
61908;BME280;47864;52.526;19.672;2023-09-19T01:02:38;154187.72;;;20.70;100.00
61908;BME280;47864;52.526;19.672;2023-09-19T01:04:40;154181.34;;;20.68;100.00
61908;BME280;47864;52.526;19.672;2023-09-19T01:06:42;154134.28;;;20.49;100.00
61908;BME280;47864;52.526;19.672;2023-09-19T01:08:44;154167.38;;;20.62;100.00
61908;BME280;47864;52.526;19.672;2023-09-19T01:10:52;154190.28;;;20.71;100.00
61908;BME280;47864;52.526;19.672;2023-09-19T01:13:18;154171.19;;;20.64;100.00
61908;BME280;47864;52.526;19.672;2023-09-19T01:17:46;154189.00;;;20.71;100.00
61908;BME280;47864;52.526;19.672;2023-09-19T01:22:00;154149.56;;;20.55;100.00
61908;BME280;47864;52.526;19.672;2023-09-19T01:24:22;154194.09;;;20.73;100.00
61908;BME280;47864;52.526;19.672;2023-09-19T01:26:53;154201.72;;;20.76;100.00
61908;BME280;47864;52.526;19.672;2023-09-19T01:31:14;154225.91;;;20.85;100.00
61908;BME280;47864;52.526;19.672;2023-09-19T01:33:16;154225.91;;;20.85;100.00
61908;BME280;47864;52.526;19.672;2023-09-19T01:35:18;154180.06;;;20.67;100.00
61908;BME280;47864;52.526;19.672;2023-09-19T01:37:21;154169.91;;;20.63;100.00
61908;BME280;47864;52.526;19.672;2023-09-19T01:39:23;154192.84;;;20.72;100.00
61908;BME280;47864;52.526;19.672;2023-09-19T01:41:29;154214.47;;;20.81;100.00
61908;BME280;47864;52.526;19.672;2023-09-19T01:43:38;154191.56;;;20.72;100.00
61908;BME280;47864;52.526;19.672;2023-09-19T01:46:05;154182.63;;;20.68;100.00
61908;BME280;47864;52.526;19.672;2023-09-19T01:48:34;154150.84;;;20.56;100.00
61908;BME280;47864;52.526;19.672;2023-09-19T01:51:10;154162.25;;;20.60;100.00
61908;BME280;47864;52.526;19.672;2023-09-19T01:53:07;154149.56;;;20.55;100.00
61908;BME280;47864;52.526;19.672;2023-09-19T01:55:12;154115.22;;;20.41;100.00
61908;BME280;47864;52.526;19.672;2023-09-19T01:57:22;154092.25;;;20.32;100.00
61908;BME280;47864;52.526;19.672;2023-09-19T01:59:34;154087.13;;;20.30;100.00
61908;BME280;47864;52.526;19.672;2023-09-19T02:01:37;154097.34;;;20.34;100.00
61908;BME280;47864;52.526;19.672;2023-09-19T02:03:40;154102.44;;;20.36;100.00
61908;BME280;47864;52.526;19.672;2023-09-19T02:05:48;154122.81;;;20.44;100.00
61908;BME280;47864;52.526;19.672;2023-09-19T02:07:51;154071.88;;;20.24;100.00
61908;BME280;47864;52.526;19.672;2023-09-19T02:09:53;154061.69;;;20.20;100.00
61908;BME280;47864;52.526;19.672;2023-09-19T02:11:54;154056.56;;;20.18;100.00
61908;BME280;47864;52.526;19.672;2023-09-19T02:13:56;154034.94;;;20.09;100.00
61908;BME280;47864;52.526;19.672;2023-09-19T02:15:57;154075.72;;;20.26;100.00
61908;BME280;47864;52.526;19.672;2023-09-19T02:18:01;154040.03;;;20.11;100.00
61908;BME280;47864;52.526;19.672;2023-09-19T02:20:03;154068.06;;;20.23;100.00
61908;BME280;47864;52.526;19.672;2023-09-19T02:22:04;154060.41;;;20.20;100.00
61908;BME280;47864;52.526;19.672;2023-09-19T02:24:06;154078.22;;;20.27;100.00
61908;BME280;47864;52.526;19.672;2023-09-19T02:26:08;154052.78;;;20.17;100.00
61908;BME280;47864;52.526;19.672;2023-09-19T02:28:09;154056.56;;;20.18;100.00
61908;BME280;47864;52.526;19.672;2023-09-19T02:30:11;154068.06;;;20.23;100.00
61908;BME280;47864;52.526;19.672;2023-09-19T02:32:13;154040.03;;;20.11;100.00
61908;BME280;47864;52.526;19.672;2023-09-19T02:34:15;154046.41;;;20.14;100.00
61908;BME280;47864;52.526;19.672;2023-09-19T02:36:16;154043.88;;;20.13;100.00
61908;BME280;47864;52.526;19.672;2023-09-19T02:38:21;154018.41;;;20.03;100.00
61908;BME280;47864;52.526;19.672;2023-09-19T02:40:22;154024.78;;;20.05;100.00
61908;BME280;47864;52.526;19.672;2023-09-19T02:42:24;153961.16;;;19.80;100.00
61908;BME280;47864;52.526;19.672;2023-09-19T02:44:25;153993.00;;;19.93;100.00
61908;BME280;47864;52.526;19.672;2023-09-19T02:46:27;153999.31;;;19.95;100.00
61908;BME280;47864;52.526;19.672;2023-09-19T02:48:29;154045.16;;;20.13;100.00
61908;BME280;47864;52.526;19.672;2023-09-19T02:50:31;154026.06;;;20.06;100.00
61908;BME280;47864;52.526;19.672;2023-09-19T02:52:33;154013.34;;;20.01;100.00
61908;BME280;47864;52.526;19.672;2023-09-19T02:54:35;154006.97;;;19.98;100.00
61908;BME280;47864;52.526;19.672;2023-09-19T02:56:36;154029.88;;;20.07;100.00
61908;BME280;47864;52.526;19.672;2023-09-19T02:58:38;154005.69;;;19.98;100.00
61908;BME280;47864;52.526;19.672;2023-09-19T03:00:40;153993.00;;;19.93;100.00
61908;BME280;47864;52.526;19.672;2023-09-19T03:02:41;154037.50;;;20.10;100.00
61908;BME280;47864;52.526;19.672;2023-09-19T03:04:43;154031.16;;;20.08;100.00
61908;BME280;47864;52.526;19.672;2023-09-19T03:06:46;154084.59;;;20.29;100.00
61908;BME280;47864;52.526;19.672;2023-09-19T03:08:47;154089.69;;;20.31;100.00
61908;BME280;47864;52.526;19.672;2023-09-19T03:10:49;154055.34;;;20.18;100.00
61908;BME280;47864;52.526;19.672;2023-09-19T03:12:51;154051.53;;;20.16;100.00
61908;BME280;47864;52.526;19.672;2023-09-19T03:14:53;154065.50;;;20.22;100.00
61908;BME280;47864;52.526;19.672;2023-09-19T03:16:54;154074.44;;;20.25;100.00
61908;BME280;47864;52.526;19.672;2023-09-19T03:18:56;154032.44;;;20.08;100.00
61908;BME280;47864;52.526;19.672;2023-09-19T03:20:57;154029.88;;;20.07;100.00
61908;BME280;47864;52.526;19.672;2023-09-19T03:22:59;154015.84;;;20.02;100.00
61908;BME280;47864;52.526;19.672;2023-09-19T03:25:01;153991.72;;;19.92;100.00
61908;BME280;47864;52.526;19.672;2023-09-19T03:27:02;154031.16;;;20.08;100.00
61908;BME280;47864;52.526;19.672;2023-09-19T03:29:04;154037.50;;;20.10;100.00
61908;BME280;47864;52.526;19.672;2023-09-19T03:31:06;154054.06;;;20.17;100.00
61908;BME280;47864;52.526;19.672;2023-09-19T03:33:08;154080.75;;;20.28;100.00
61908;BME280;47864;52.526;19.672;2023-09-19T03:35:10;154069.34;;;20.23;100.00
61908;BME280;47864;52.526;19.672;2023-09-19T03:37:11;154083.31;;;20.29;100.00
61908;BME280;47864;52.526;19.672;2023-09-19T03:39:13;154074.44;;;20.25;100.00
61908;BME280;47864;52.526;19.672;2023-09-19T03:41:14;154037.50;;;20.10;100.00
61908;BME280;47864;52.526;19.672;2023-09-19T03:43:16;154036.22;;;20.10;100.00
61908;BME280;47864;52.526;19.672;2023-09-19T03:45:17;153998.06;;;19.95;100.00
61908;BME280;47864;52.526;19.672;2023-09-19T03:47:19;154004.44;;;19.97;100.00
61908;BME280;47864;52.526;19.672;2023-09-19T03:49:21;154046.41;;;20.14;100.00
61908;BME280;47864;52.526;19.672;2023-09-19T03:51:22;153987.91;;;19.91;100.00
61908;BME280;47864;52.526;19.672;2023-09-19T03:53:24;154048.97;;;20.15;100.00
61908;BME280;47864;52.526;19.672;2023-09-19T03:55:25;154018.41;;;20.03;100.00
61908;BME280;47864;52.526;19.672;2023-09-19T03:57:27;154029.88;;;20.07;100.00
61908;BME280;47864;52.526;19.672;2023-09-19T03:59:28;153951.00;;;19.76;100.00
61908;BME280;47864;52.526;19.672;2023-09-19T04:01:30;153972.63;;;19.85;100.00
61908;BME280;47864;52.526;19.672;2023-09-19T04:03:35;154045.16;;;20.13;100.00
61908;BME280;47864;52.526;19.672;2023-09-19T04:05:37;154009.53;;;19.99;100.00
61908;BME280;47864;52.526;19.672;2023-09-19T04:07:39;154040.03;;;20.11;100.00
61908;BME280;47864;52.526;19.672;2023-09-19T04:09:41;154015.84;;;20.02;100.00
61908;BME280;47864;52.526;19.672;2023-09-19T04:11:42;154001.88;;;19.96;100.00
61908;BME280;47864;52.526;19.672;2023-09-19T04:13:44;153933.16;;;19.69;100.00
61908;BME280;47864;52.526;19.672;2023-09-19T04:15:46;153912.81;;;19.61;100.00
61908;BME280;47864;52.526;19.672;2023-09-19T04:17:47;153928.09;;;19.67;100.00
61908;BME280;47864;52.526;19.672;2023-09-19T04:19:49;153916.63;;;19.62;100.00
61908;BME280;47864;52.526;19.672;2023-09-19T04:21:51;153907.75;;;19.59;100.00
61908;BME280;47864;52.526;19.672;2023-09-19T04:23:52;153923.00;;;19.65;100.00
61908;BME280;47864;52.526;19.672;2023-09-19T04:25:54;153897.56;;;19.55;100.00
61908;BME280;47864;52.526;19.672;2023-09-19T04:27:56;153874.59;;;19.46;100.00
61908;BME280;47864;52.526;19.672;2023-09-19T04:29:57;153920.47;;;19.64;100.00
61908;BME280;47864;52.526;19.672;2023-09-19T04:31:59;153917.91;;;19.63;100.00
61908;BME280;47864;52.526;19.672;2023-09-19T04:34:00;153948.47;;;19.75;100.00
61908;BME280;47864;52.526;19.672;2023-09-19T04:36:02;153951.00;;;19.76;100.00
61908;BME280;47864;52.526;19.672;2023-09-19T04:38:24;153953.50;;;19.77;100.00
61908;BME280;47864;52.526;19.672;2023-09-19T04:40:25;153951.00;;;19.76;100.00
61908;BME280;47864;52.526;19.672;2023-09-19T04:42:27;153942.09;;;19.72;100.00
61908;BME280;47864;52.526;19.672;2023-09-19T04:44:28;153929.38;;;19.67;100.00
61908;BME280;47864;52.526;19.672;2023-09-19T04:46:30;153902.66;;;19.57;100.00
61908;BME280;47864;52.526;19.672;2023-09-19T04:48:32;153936.97;;;19.70;100.00
61908;BME280;47864;52.526;19.672;2023-09-19T04:50:33;153909.03;;;19.59;100.00
61908;BME280;47864;52.526;19.672;2023-09-19T04:52:35;153907.75;;;19.59;100.00
61908;BME280;47864;52.526;19.672;2023-09-19T04:54:36;153945.91;;;19.74;100.00
61908;BME280;47864;52.526;19.672;2023-09-19T04:56:38;153990.44;;;19.92;100.00
61908;BME280;47864;52.526;19.672;2023-09-19T04:58:40;154036.22;;;20.10;100.00
61908;BME280;47864;52.526;19.672;2023-09-19T05:00:41;154069.34;;;20.23;100.00
61908;BME280;47864;52.526;19.672;2023-09-19T05:02:43;154031.16;;;20.08;100.00
61908;BME280;47864;52.526;19.672;2023-09-19T05:04:44;154004.44;;;19.97;100.00
61908;BME280;47864;52.526;19.672;2023-09-19T05:06:46;154017.13;;;20.02;100.00
61908;BME280;47864;52.526;19.672;2023-09-19T05:08:48;154004.44;;;19.97;100.00
61908;BME280;47864;52.526;19.672;2023-09-19T05:10:50;153980.25;;;19.88;100.00
61908;BME280;47864;52.526;19.672;2023-09-19T05:12:54;153980.25;;;19.88;100.00
61908;BME280;47864;52.526;19.672;2023-09-19T05:14:56;153958.63;;;19.79;100.00
61908;BME280;47864;52.526;19.672;2023-09-19T05:16:57;153935.72;;;19.70;100.00
61908;BME280;47864;52.526;19.672;2023-09-19T05:18:59;153944.63;;;19.73;100.00
61908;BME280;47864;52.526;19.672;2023-09-19T05:21:02;153986.63;;;19.90;100.00
61908;BME280;47864;52.526;19.672;2023-09-19T05:23:07;153975.16;;;19.86;100.00
61908;BME280;47864;52.526;19.672;2023-09-19T05:25:09;153954.78;;;19.77;100.00
61908;BME280;47864;52.526;19.672;2023-09-19T05:27:11;153891.19;;;19.52;100.00
61908;BME280;47864;52.526;19.672;2023-09-19T05:29:13;153873.31;;;19.45;100.00
61908;BME280;47864;52.526;19.672;2023-09-19T05:31:14;153879.75;;;19.48;100.00
61908;BME280;47864;52.526;19.672;2023-09-19T05:33:16;153886.13;;;19.50;100.00
61908;BME280;47864;52.526;19.672;2023-09-19T05:35:17;153920.47;;;19.64;100.00
61908;BME280;47864;52.526;19.672;2023-09-19T05:37:19;153879.75;;;19.48;100.00
61908;BME280;47864;52.526;19.672;2023-09-19T05:39:20;153873.31;;;19.45;100.00
61908;BME280;47864;52.526;19.672;2023-09-19T05:41:22;153823.75;;;19.25;100.00
61908;BME280;47864;52.526;19.672;2023-09-19T05:43:23;153812.28;;;19.21;100.00
61908;BME280;47864;52.526;19.672;2023-09-19T05:45:25;153758.91;;;18.99;100.00
61908;BME280;47864;52.526;19.672;2023-09-19T05:47:27;153774.16;;;19.06;100.00
61908;BME280;47864;52.526;19.672;2023-09-19T05:49:28;153769.03;;;19.04;100.00
61908;BME280;47864;52.526;19.672;2023-09-19T05:51:30;153761.44;;;19.00;100.00
61908;BME280;47864;52.526;19.672;2023-09-19T05:53:31;153744.94;;;18.94;100.00
61908;BME280;47864;52.526;19.672;2023-09-19T05:55:33;153762.72;;;19.01;100.00
61908;BME280;47864;52.526;19.672;2023-09-19T05:57:35;153730.91;;;18.88;100.00
61908;BME280;47864;52.526;19.672;2023-09-19T05:59:36;153705.47;;;18.78;100.00
61908;BME280;47864;52.526;19.672;2023-09-19T06:01:38;153732.19;;;18.89;100.00
61908;BME280;47864;52.526;19.672;2023-09-19T06:03:39;153709.28;;;18.80;100.00
61908;BME280;47864;52.526;19.672;2023-09-19T06:05:41;153711.84;;;18.81;100.00
61908;BME280;47864;52.526;19.672;2023-09-19T06:07:43;153714.38;;;18.82;100.00
61908;BME280;47864;52.526;19.672;2023-09-19T06:09:44;153748.69;;;18.95;100.00
61908;BME280;47864;52.526;19.672;2023-09-19T06:11:46;153746.16;;;18.94;100.00
61908;BME280;47864;52.526;19.672;2023-09-19T06:13:47;153722.03;;;18.85;100.00
61908;BME280;47864;52.526;19.672;2023-09-19T06:15:49;153732.19;;;18.89;100.00
61908;BME280;47864;52.526;19.672;2023-09-19T06:17:55;153744.94;;;18.94;100.00
61908;BME280;47864;52.526;19.672;2023-09-19T06:19:57;153779.25;;;19.08;100.00
61908;BME280;47864;52.526;19.672;2023-09-19T06:21:58;153783.06;;;19.09;100.00
61908;BME280;47864;52.526;19.672;2023-09-19T06:24:00;153786.84;;;19.11;100.00
61908;BME280;47864;52.526;19.672;2023-09-19T06:26:01;153783.06;;;19.09;100.00
61908;BME280;47864;52.526;19.672;2023-09-19T06:28:03;153783.06;;;19.09;100.00
61908;BME280;47864;52.526;19.672;2023-09-19T06:30:05;153803.41;;;19.17;100.00
61908;BME280;47864;52.526;19.672;2023-09-19T06:32:10;153775.41;;;19.06;100.00
61908;BME280;47864;52.526;19.672;2023-09-19T06:34:12;153779.25;;;19.08;100.00
61908;BME280;47864;52.526;19.672;2023-09-19T06:36:13;153800.84;;;19.16;100.00
61908;BME280;47864;52.526;19.672;2023-09-19T06:38:15;153818.66;;;19.23;100.00
61908;BME280;47864;52.526;19.672;2023-09-19T06:40:17;153856.81;;;19.38;100.00
61908;BME280;47864;52.526;19.672;2023-09-19T06:42:18;153897.56;;;19.55;100.00
61908;BME280;47864;52.526;19.672;2023-09-19T06:44:22;153953.50;;;19.77;100.00
61908;BME280;47864;52.526;19.672;2023-09-19T06:46:24;153991.72;;;19.92;100.00
61908;BME280;47864;52.526;19.672;2023-09-19T06:48:26;154068.06;;;20.23;100.00
61908;BME280;47864;52.526;19.672;2023-09-19T06:50:27;154118.97;;;20.43;100.00
61908;BME280;47864;52.526;19.672;2023-09-19T06:52:29;154164.81;;;20.61;100.00
61908;BME280;47864;52.526;19.672;2023-09-19T06:54:31;154166.09;;;20.62;100.00
61908;BME280;47864;52.526;19.672;2023-09-19T06:56:33;154187.72;;;20.70;100.00
61908;BME280;47864;52.526;19.672;2023-09-19T06:58:34;154071.88;;;20.24;100.00
61908;BME280;47864;52.526;19.672;2023-09-19T07:00:36;154097.34;;;20.34;100.00
61908;BME280;47864;52.526;19.672;2023-09-19T07:02:38;154094.78;;;20.33;100.00
61908;BME280;47864;52.526;19.672;2023-09-19T07:04:40;154066.78;;;20.22;100.00
61908;BME280;47864;52.526;19.672;2023-09-19T07:06:41;154099.91;;;20.35;100.00
61908;BME280;47864;52.526;19.672;2023-09-19T07:08:43;154136.84;;;20.50;100.00
61908;BME280;47864;52.526;19.672;2023-09-19T07:10:44;154126.63;;;20.46;100.00
61908;BME280;47864;52.526;19.672;2023-09-19T07:12:46;154084.59;;;20.29;100.00
61908;BME280;47864;52.526;19.672;2023-09-19T07:14:48;154069.34;;;20.23;100.00
61908;BME280;47864;52.526;19.672;2023-09-19T07:16:49;154094.78;;;20.33;100.00
61908;BME280;47864;52.526;19.672;2023-09-19T07:18:51;154050.25;;;20.16;100.00
61908;BME280;47864;52.526;19.672;2023-09-19T07:20:57;154064.22;;;20.21;100.00
61908;BME280;47864;52.526;19.672;2023-09-19T07:22:59;154046.41;;;20.14;100.00
61908;BME280;47864;52.526;19.672;2023-09-19T07:25:00;154079.47;;;20.27;100.00
61908;BME280;47864;52.526;19.672;2023-09-19T07:27:02;154108.81;;;20.39;100.00
61908;BME280;47864;52.526;19.672;2023-09-19T07:29:04;154092.25;;;20.32;100.00
61908;BME280;47864;52.526;19.672;2023-09-19T07:31:05;154108.81;;;20.39;100.00
61908;BME280;47864;52.526;19.672;2023-09-19T07:33:07;154076.94;;;20.26;100.00
61908;BME280;47864;52.526;19.672;2023-09-19T07:35:09;154064.22;;;20.21;100.00
61908;BME280;47864;52.526;19.672;2023-09-19T07:37:10;154071.88;;;20.24;100.00
61908;BME280;47864;52.526;19.672;2023-09-19T07:39:12;154069.34;;;20.23;100.00
61908;BME280;47864;52.526;19.672;2023-09-19T07:41:24;154056.56;;;20.18;100.00
61908;BME280;47864;52.526;19.672;2023-09-19T07:43:25;154097.34;;;20.34;100.00
61908;BME280;47864;52.526;19.672;2023-09-19T07:45:30;154122.81;;;20.44;100.00
61908;BME280;47864;52.526;19.672;2023-09-19T07:47:33;154060.41;;;20.20;100.00
61908;BME280;47864;52.526;19.672;2023-09-19T07:49:34;154113.94;;;20.41;100.00
61908;BME280;47864;52.526;19.672;2023-09-19T07:51:36;154134.28;;;20.49;100.00
61908;BME280;47864;52.526;19.672;2023-09-19T07:53:37;154149.56;;;20.55;100.00
61908;BME280;47864;52.526;19.672;2023-09-19T07:55:39;154108.81;;;20.39;100.00
61908;BME280;47864;52.526;19.672;2023-09-19T07:57:41;154134.28;;;20.49;100.00
61908;BME280;47864;52.526;19.672;2023-09-19T07:59:43;154133.03;;;20.48;100.00
61908;BME280;47864;52.526;19.672;2023-09-19T08:01:44;154150.84;;;20.56;100.00
61908;BME280;47864;52.526;19.672;2023-09-19T08:03:47;154152.09;;;20.56;100.00
61908;BME280;47864;52.526;19.672;2023-09-19T08:05:49;154124.09;;;20.45;100.00
61908;BME280;47864;52.526;19.672;2023-09-19T08:07:50;154133.03;;;20.48;100.00
61908;BME280;47864;52.526;19.672;2023-09-19T08:09:52;154139.34;;;20.51;100.00
61908;BME280;47864;52.526;19.672;2023-09-19T08:11:53;154113.94;;;20.41;100.00
61908;BME280;47864;52.526;19.672;2023-09-19T08:13:55;154144.44;;;20.53;100.00
61908;BME280;47864;52.526;19.672;2023-09-19T08:15:56;154152.09;;;20.56;100.00
61908;BME280;47864;52.526;19.672;2023-09-19T08:17:58;154175.03;;;20.65;100.00
61908;BME280;47864;52.526;19.672;2023-09-19T08:20:00;154155.94;;;20.58;100.00
61908;BME280;47864;52.526;19.672;2023-09-19T08:22:01;154129.19;;;20.47;100.00
61908;BME280;47864;52.526;19.672;2023-09-19T08:24:03;154159.72;;;20.59;100.00
61908;BME280;47864;52.526;19.672;2023-09-19T08:26:05;154153.38;;;20.57;100.00
61908;BME280;47864;52.526;19.672;2023-09-19T08:28:06;154166.09;;;20.62;100.00
61908;BME280;47864;52.526;19.672;2023-09-19T08:30:08;154205.53;;;20.77;100.00
61908;BME280;47864;52.526;19.672;2023-09-19T08:32:10;154205.53;;;20.77;100.00
61908;BME280;47864;52.526;19.672;2023-09-19T08:34:11;154160.97;;;20.60;100.00
61908;BME280;47864;52.526;19.672;2023-09-19T08:36:13;154167.38;;;20.62;100.00
61908;BME280;47864;52.526;19.672;2023-09-19T08:38:15;154197.94;;;20.74;100.00
61908;BME280;47864;52.526;19.672;2023-09-19T08:40:17;154228.47;;;20.86;100.00
61908;BME280;47864;52.526;19.672;2023-09-19T08:42:19;154262.81;;;21.00;100.00
61908;BME280;47864;52.526;19.672;2023-09-19T08:44:20;154225.91;;;20.85;100.00
61908;BME280;47864;52.526;19.672;2023-09-19T08:46:25;154241.22;;;20.92;100.00
61908;BME280;47864;52.526;19.672;2023-09-19T08:48:29;154259.03;;;20.99;100.00
61908;BME280;47864;52.526;19.672;2023-09-19T08:50:31;154229.75;;;20.87;100.00
61908;BME280;47864;52.526;19.672;2023-09-19T08:52:42;154223.38;;;20.84;100.00
61908;BME280;47864;52.526;19.672;2023-09-19T08:54:45;154213.19;;;20.80;100.00
61908;BME280;47864;52.526;19.672;2023-09-19T08:56:50;154204.28;;;20.77;100.00
61908;BME280;47864;52.526;19.672;2023-09-19T08:58:54;154197.94;;;20.74;100.00
61908;BME280;47864;52.526;19.672;2023-09-19T09:00:57;154211.94;;;20.80;100.00
61908;BME280;47864;52.526;19.672;2023-09-19T09:03:00;154256.50;;;20.98;100.00
61908;BME280;47864;52.526;19.672;2023-09-19T09:05:04;154269.22;;;21.03;100.00
61908;BME280;47864;52.526;19.672;2023-09-19T09:07:14;154288.31;;;21.10;100.00
61908;BME280;47864;52.526;19.672;2023-09-19T09:09:16;154231.03;;;20.87;100.00
61908;BME280;47864;52.526;19.672;2023-09-19T09:11:18;154276.88;;;21.06;100.00
61908;BME280;47864;52.526;19.672;2023-09-19T09:13:21;154298.50;;;21.14;100.00
61908;BME280;47864;52.526;19.672;2023-09-19T09:15:23;154264.09;;;21.01;100.00
61908;BME280;47864;52.526;19.672;2023-09-19T09:17:25;154245.00;;;20.93;100.00
61908;BME280;47864;52.526;19.672;2023-09-19T09:19:27;154250.13;;;20.95;100.00
61908;BME280;47864;52.526;19.672;2023-09-19T09:21:28;154209.38;;;20.79;100.00
61908;BME280;47864;52.526;19.672;2023-09-19T09:23:30;154187.72;;;20.70;100.00
61908;BME280;47864;52.526;19.672;2023-09-19T09:25:52;154228.47;;;20.86;100.00
61908;BME280;47864;52.526;19.672;2023-09-19T09:28:01;154236.13;;;20.89;100.00
61908;BME280;47864;52.526;19.672;2023-09-19T09:30:03;154210.66;;;20.79;100.00
61908;BME280;47864;52.526;19.672;2023-09-19T09:32:21;154219.59;;;20.83;100.00
61908;BME280;47864;52.526;19.672;2023-09-19T09:34:32;154224.63;;;20.85;100.00
61908;BME280;47864;52.526;19.672;2023-09-19T09:36:38;154239.94;;;20.91;100.00
61908;BME280;47864;52.526;19.672;2023-09-19T09:38:45;154210.66;;;20.79;100.00
61908;BME280;47864;52.526;19.672;2023-09-19T09:40:51;154264.09;;;21.01;100.00
61908;BME280;47864;52.526;19.672;2023-09-19T09:42:53;154262.81;;;21.00;100.00
61908;BME280;47864;52.526;19.672;2023-09-19T09:47:41;154355.84;;;21.37;100.00
61908;BME280;47864;52.526;19.672;2023-09-19T09:49:47;154374.94;;;21.45;100.00
61908;BME280;47864;52.526;19.672;2023-09-19T09:51:51;154464.13;;;21.80;100.00
61908;BME280;47864;52.526;19.672;2023-09-19T09:54:13;154420.81;;;21.63;100.00
61908;BME280;47864;52.526;19.672;2023-09-19T09:56:15;154353.31;;;21.36;100.00
61908;BME280;47864;52.526;19.672;2023-09-19T09:58:17;154394.06;;;21.52;100.00
61908;BME280;47864;52.526;19.672;2023-09-19T10:00:19;154418.25;;;21.62;100.00
61908;BME280;47864;52.526;19.672;2023-09-19T10:02:25;154381.34;;;21.47;100.00
61908;BME280;47864;52.526;19.672;2023-09-19T10:04:28;154390.22;;;21.51;100.00
61908;BME280;47864;52.526;19.672;2023-09-19T10:06:40;154447.59;;;21.74;100.00
61908;BME280;47864;52.526;19.672;2023-09-19T10:08:57;154479.41;;;21.86;100.00
61908;BME280;47864;52.526;19.672;2023-09-19T10:10:59;154501.06;;;21.95;100.00
61908;BME280;47864;52.526;19.672;2023-09-19T10:13:01;154460.31;;;21.79;100.00
61908;BME280;47864;52.526;19.672;2023-09-19T10:15:03;154411.88;;;21.59;100.00
61908;BME280;47864;52.526;19.672;2023-09-19T10:17:05;154336.75;;;21.30;100.00
61908;BME280;47864;52.526;19.672;2023-09-19T10:19:07;154385.16;;;21.49;100.00
61908;BME280;47864;52.526;19.672;2023-09-19T10:21:10;154341.88;;;21.32;100.00
61908;BME280;47864;52.526;19.672;2023-09-19T10:23:12;154299.78;;;21.15;100.00
61908;BME280;47864;52.526;19.672;2023-09-19T10:25:14;154330.38;;;21.27;100.00
61908;BME280;47864;52.526;19.672;2023-09-19T10:27:15;154317.66;;;21.22;100.00
61908;BME280;47864;52.526;19.672;2023-09-19T10:29:18;154304.91;;;21.17;100.00
61908;BME280;47864;52.526;19.672;2023-09-19T10:31:20;154304.91;;;21.17;100.00
61908;BME280;47864;52.526;19.672;2023-09-19T10:33:24;154310.00;;;21.19;100.00
61908;BME280;47864;52.526;19.672;2023-09-19T10:35:26;154321.50;;;21.23;100.00
61908;BME280;47864;52.526;19.672;2023-09-19T10:37:29;154373.69;;;21.44;100.00